createdAt,value
2018-01-07T00:00:24.729Z,99.99
2018-01-07T00:01:24.717Z,99.99
2018-01-07T00:02:24.691Z,99.99
2018-01-07T00:03:24.398Z,99.99
2018-01-07T00:04:24.643Z,99.99
2018-01-07T00:05:24.357Z,99.99
2018-01-07T00:06:24.604Z,99.99
2018-01-07T00:07:24.578Z,99.99
2018-01-07T00:08:24.296Z,99.99
2018-01-07T00:09:24.533Z,99.99
2018-01-07T00:10:24.252Z,99.99
2018-01-07T00:11:24.492Z,99.99
2018-01-07T00:12:24.211Z,99.99
2018-01-07T00:13:24.447Z,99.99
2018-01-07T00:14:24.425Z,99.72
2018-01-07T00:15:24.405Z,99.91
2018-01-07T00:16:24.382Z,99.96
2018-01-07T00:17:24.374Z,99.53
2018-01-07T00:18:24.344Z,99.2
2018-01-07T00:19:24.320Z,99.44
2018-01-07T00:20:24.297Z,98.96
2018-01-07T00:21:24.014Z,99.3
2018-01-07T00:22:24.255Z,98.39
2018-01-07T00:23:24.234Z,98.58
2018-01-07T00:24:23.947Z,98.77
2018-01-07T00:25:23.926Z,98.77
2018-01-07T00:26:24.166Z,98.92
2018-01-07T00:27:24.144Z,98.44
2018-01-07T00:28:24.128Z,98.49
2018-01-07T00:29:24.159Z,98.87
2018-01-07T00:30:24.080Z,98.58
2018-01-07T00:31:23.796Z,98.96
2018-01-07T00:32:23.771Z,98.49
2018-01-07T00:33:24.016Z,97.83
2018-01-07T00:34:23.994Z,98.16
2018-01-07T00:35:23.970Z,97.31
2018-01-07T00:36:23.685Z,97.5
2018-01-07T00:37:23.667Z,97.4
2018-01-07T00:38:23.910Z,97.26
2018-01-07T00:39:23.885Z,97.4
2018-01-07T00:40:23.605Z,96.88
2018-01-07T00:41:23.579Z,96.59
2018-01-07T00:42:23.823Z,96.31
2018-01-07T00:43:23.535Z,96.03
2018-01-07T00:44:23.514Z,96.36
2018-01-07T00:45:23.761Z,96.12
2018-01-07T00:46:23.472Z,96.5
2018-01-07T00:47:23.717Z,95.98
2018-01-07T00:48:23.693Z,95.17
2018-01-07T00:49:23.669Z,95.17
2018-01-07T00:50:23.386Z,95.07
2018-01-07T00:51:23.361Z,94.89
2018-01-07T00:52:23.604Z,94.7
2018-01-07T00:53:23.585Z,95.07
2018-01-07T00:54:23.298Z,94.79
2018-01-07T00:55:23.278Z,94.42
2018-01-07T00:56:23.253Z,93.75
2018-01-07T00:57:23.498Z,93.75
2018-01-07T00:58:23.474Z,93.89
2018-01-07T00:59:23.190Z,93.84
2018-01-07T01:00:23.165Z,93.84
2018-01-07T01:01:23.145Z,92.99
2018-01-07T01:02:23.384Z,93.46
2018-01-07T01:03:23.372Z,93.84
2018-01-07T01:04:23.346Z,93.27
2018-01-07T01:05:23.058Z,93.27
2018-01-07T01:06:23.036Z,92.71
2018-01-07T01:07:23.281Z,93.04
2018-01-07T01:08:23.258Z,93.13
2018-01-07T01:09:23.242Z,93.18
2018-01-07T01:10:23.216Z,92.99
2018-01-07T01:11:22.927Z,92.9
2018-01-07T01:12:23.169Z,92.61
2018-01-07T01:13:22.884Z,92.9
2018-01-07T01:14:23.128Z,93.08
2018-01-07T01:15:22.839Z,92.99
2018-01-07T01:16:23.082Z,92.8
2018-01-07T01:17:23.060Z,92.9
2018-01-07T01:18:23.041Z,92.57
2018-01-07T01:19:22.756Z,92.52
2018-01-07T01:20:23.003Z,92.33
2018-01-07T01:21:22.971Z,92.52
2018-01-07T01:22:22.951Z,91.66
2018-01-07T01:23:22.935Z,92.61
2018-01-07T01:24:22.912Z,92.38
2018-01-07T01:25:22.894Z,92.42
2018-01-07T01:26:22.608Z,92.47
2018-01-07T01:27:22.864Z,92.61
2018-01-07T01:28:22.577Z,92.04
2018-01-07T01:29:22.537Z,91.76
2018-01-07T01:30:22.782Z,91.76
2018-01-07T01:31:22.490Z,92.09
2018-01-07T01:32:22.469Z,91.66
2018-01-07T01:33:22.713Z,92.09
2018-01-07T01:34:22.424Z,91.71
2018-01-07T01:35:22.673Z,91.76
2018-01-07T01:36:22.651Z,92.57
2018-01-07T01:37:22.404Z,92.33
2018-01-07T01:38:22.337Z,92.66
2018-01-07T01:39:22.324Z,92.04
2018-01-07T01:40:22.295Z,91.66
2018-01-07T01:41:22.553Z,92.28
2018-01-07T01:42:22.515Z,91.85
2018-01-07T01:43:22.231Z,92.09
2018-01-07T01:44:22.208Z,91.8
2018-01-07T01:45:22.454Z,91.76
2018-01-07T01:46:22.166Z,91.66
2018-01-07T01:47:22.410Z,91.9
2018-01-07T01:48:22.389Z,91.76
2018-01-07T01:49:22.098Z,91.66
2018-01-07T01:50:22.076Z,91.8
2018-01-07T01:51:22.324Z,91.8
2018-01-07T01:52:22.297Z,91.8
2018-01-07T01:53:22.015Z,92.09
2018-01-07T01:54:22.259Z,91.71
2018-01-07T01:55:21.968Z,91.9
2018-01-07T01:56:22.213Z,91.8
2018-01-07T01:57:22.186Z,92.09
2018-01-07T01:58:22.172Z,91.9
2018-01-07T01:59:22.155Z,91.9
2018-01-07T02:00:21.862Z,91.71
2018-01-07T02:01:22.108Z,91.8
2018-01-07T02:02:22.080Z,91.9
2018-01-07T02:03:22.062Z,92.09
2018-01-07T02:04:21.772Z,91.99
2018-01-07T02:05:21.750Z,91.9
2018-01-07T02:06:21.995Z,91.99
2018-01-07T02:07:21.973Z,91.9
2018-01-07T02:08:21.947Z,91.8
2018-01-07T02:09:21.929Z,92.09
2018-01-07T02:10:21.647Z,91.9
2018-01-07T02:11:21.624Z,91.9
2018-01-07T02:12:21.600Z,91.99
2018-01-07T02:13:21.579Z,92.09
2018-01-07T02:14:21.822Z,92.28
2018-01-07T02:15:21.535Z,91.19
2018-01-07T02:16:21.525Z,91.8
2018-01-07T02:17:21.757Z,91.9
2018-01-07T02:18:21.734Z,91.66
2018-01-07T02:19:21.449Z,91.8
2018-01-07T02:20:21.695Z,92.66
2018-01-07T02:21:21.670Z,92.76
2018-01-07T02:22:21.644Z,92.52
2018-01-07T02:23:21.364Z,92.14
2018-01-07T02:24:21.610Z,92.38
2018-01-07T02:25:21.584Z,93.46
2018-01-07T02:26:21.556Z,93.27
2018-01-07T02:27:21.278Z,93.46
2018-01-07T02:28:21.519Z,93.32
2018-01-07T02:29:21.495Z,93.51
2018-01-07T02:30:21.680Z,93.99
2018-01-07T02:31:21.454Z,93.18
2018-01-07T02:32:21.173Z,93.32
2018-01-07T02:33:21.408Z,94.08
2018-01-07T02:34:21.124Z,94.04
2018-01-07T02:35:21.411Z,93.13
2018-01-07T02:36:21.346Z,93.99
2018-01-07T02:37:21.325Z,93.89
2018-01-07T02:38:21.301Z,93.8
2018-01-07T02:39:21.015Z,93.7
2018-01-07T02:40:21.280Z,94.23
2018-01-07T02:41:21.246Z,93.94
2018-01-07T02:42:20.948Z,94.18
2018-01-07T02:43:21.197Z,94.32
2018-01-07T02:44:20.904Z,94.89
2018-01-07T02:45:21.149Z,94.65
2018-01-07T02:46:21.125Z,95.07
2018-01-07T02:47:20.837Z,94.7
2018-01-07T02:48:20.823Z,95.31
2018-01-07T02:49:20.797Z,95.74
2018-01-07T02:50:21.045Z,95.45
2018-01-07T02:51:20.753Z,95.45
2018-01-07T02:52:20.736Z,95.5
2018-01-07T02:53:20.981Z,96.03
2018-01-07T02:54:20.687Z,95.55
2018-01-07T02:55:20.931Z,95.65
2018-01-07T02:56:20.641Z,96.59
2018-01-07T02:57:20.622Z,95.88
2018-01-07T02:58:20.871Z,95.69
2018-01-07T02:59:20.842Z,96.55
2018-01-07T03:00:20.574Z,96.36
2018-01-07T03:01:20.599Z,96.12
2018-01-07T03:02:20.510Z,96.36
2018-01-07T03:03:20.752Z,96.41
2018-01-07T03:04:20.485Z,96.36
2018-01-07T03:05:20.476Z,96.59
2018-01-07T03:06:20.689Z,96.59
2018-01-07T03:07:20.673Z,97.35
2018-01-07T03:08:20.649Z,97.35
2018-01-07T03:09:20.621Z,96.97
2018-01-07T03:10:20.346Z,97.21
2018-01-07T03:11:20.318Z,97.4
2018-01-07T03:12:20.570Z,97.16
2018-01-07T03:13:20.549Z,97.16
2018-01-07T03:14:20.280Z,97.21
2018-01-07T03:15:20.510Z,96.69
2018-01-07T03:16:20.488Z,97.31
2018-01-07T03:17:20.478Z,97.16
2018-01-07T03:18:20.162Z,97.64
2018-01-07T03:19:20.141Z,97.16
2018-01-07T03:20:20.119Z,97.21
2018-01-07T03:21:20.098Z,97.54
2018-01-07T03:22:20.074Z,97.12
2018-01-07T03:23:20.321Z,97.35
2018-01-07T03:24:20.298Z,97.12
2018-01-07T03:25:20.282Z,98.39
2018-01-07T03:26:20.262Z,98.07
2018-01-07T03:27:19.965Z,97.54
2018-01-07T03:28:19.947Z,97.64
2018-01-07T03:29:20.193Z,97.59
2018-01-07T03:30:19.909Z,97.97
2018-01-07T03:31:19.883Z,97.83
2018-01-07T03:32:20.126Z,97.88
2018-01-07T03:33:20.102Z,98.07
2018-01-07T03:34:19.819Z,97.92
2018-01-07T03:35:20.062Z,97.64
2018-01-07T03:36:20.037Z,97.59
2018-01-07T03:37:20.015Z,96.88
2018-01-07T03:38:20.003Z,96.97
2018-01-07T03:39:19.709Z,97.21
2018-01-07T03:40:19.684Z,97.26
2018-01-07T03:41:19.669Z,97.35
2018-01-07T03:42:19.909Z,97.16
2018-01-07T03:43:19.883Z,97.31
2018-01-07T03:44:19.866Z,97.16
2018-01-07T03:45:19.582Z,97.4
2018-01-07T03:46:19.819Z,97.16
2018-01-07T03:47:19.795Z,97.21
2018-01-07T03:48:19.774Z,97.5
2018-01-07T03:49:19.489Z,97.69
2018-01-07T03:50:19.734Z,97.97
2018-01-07T03:51:19.707Z,98.16
2018-01-07T03:52:19.691Z,97.88
2018-01-07T03:53:19.400Z,98.25
2018-01-07T03:54:19.380Z,98.11
2018-01-07T03:55:19.622Z,98.16
2018-01-07T03:56:19.598Z,98.21
2018-01-07T03:57:19.314Z,97.92
2018-01-07T03:58:19.562Z,98.58
2018-01-07T03:59:19.272Z,98.77
2018-01-07T04:00:19.251Z,98.96
2018-01-07T04:01:19.490Z,97.92
2018-01-07T04:02:19.208Z,98.02
2018-01-07T04:03:19.454Z,99.34
2018-01-07T04:04:19.428Z,98.77
2018-01-07T04:05:19.152Z,98.87
2018-01-07T04:06:19.119Z,99.34
2018-01-07T04:07:19.096Z,99.44
2018-01-07T04:08:19.075Z,99.63
2018-01-07T04:09:19.317Z,99.53
2018-01-07T04:10:19.036Z,99.99
2018-01-07T04:11:19.272Z,99.99
2018-01-07T04:12:18.987Z,99.99
2018-01-07T04:13:19.237Z,99.91
2018-01-07T04:14:18.948Z,99.99
2018-01-07T04:15:18.921Z,99.99
2018-01-07T04:16:19.165Z,99.53
2018-01-07T04:17:18.879Z,99.99
2018-01-07T04:18:19.120Z,99.99
2018-01-07T04:19:19.095Z,99.99
2018-01-07T04:20:18.812Z,99.99
2018-01-07T04:21:18.790Z,99.99
2018-01-07T04:22:19.035Z,99.99
2018-01-07T04:23:19.011Z,99.99
2018-01-07T04:24:18.998Z,99.99
2018-01-07T04:25:18.973Z,99.99
2018-01-07T04:26:18.949Z,99.99
2018-01-07T04:27:18.930Z,99.99
2018-01-07T04:28:18.901Z,99.99
2018-01-07T04:29:18.879Z,99.99
2018-01-07T04:30:19.062Z,99.99
2018-01-07T04:31:18.573Z,99.99
2018-01-07T04:32:18.550Z,99.99
2018-01-07T04:33:18.793Z,99.99
2018-01-07T04:34:18.768Z,99.99
2018-01-07T04:35:18.485Z,99.99
2018-01-07T04:36:18.465Z,99.99
2018-01-07T04:37:18.705Z,99.99
2018-01-07T04:38:18.682Z,99.99
2018-01-07T04:39:18.706Z,99.99
2018-01-07T04:40:18.645Z,99.99
2018-01-07T04:41:18.617Z,99.99
2018-01-07T04:42:18.603Z,99.99
2018-01-07T04:43:18.572Z,99.99
2018-01-07T04:44:18.552Z,99.99
2018-01-07T04:45:18.270Z,99.99
2018-01-07T04:46:18.508Z,99.99
2018-01-07T04:47:18.487Z,99.99
2018-01-07T04:48:18.199Z,99.99
2018-01-07T04:49:18.440Z,99.99
2018-01-07T04:50:18.421Z,99.99
2018-01-07T04:51:18.133Z,99.99
2018-01-07T04:52:18.383Z,99.99
2018-01-07T04:53:18.088Z,99.99
2018-01-07T04:54:18.331Z,99.99
2018-01-07T04:55:18.310Z,99.99
2018-01-07T04:56:18.288Z,99.99
2018-01-07T04:57:18.271Z,99.99
2018-01-07T04:58:17.979Z,99.99
2018-01-07T04:59:18.218Z,99.99
2018-01-07T05:00:17.935Z,99.99
2018-01-07T05:01:18.183Z,99.99
2018-01-07T05:02:18.156Z,99.99
2018-01-07T05:03:17.872Z,99.99
2018-01-07T05:04:18.113Z,99.99
2018-01-07T05:05:18.092Z,99.99
2018-01-07T05:06:18.065Z,99.99
2018-01-07T05:07:17.779Z,99.99
2018-01-07T05:08:18.025Z,99.99
2018-01-07T05:09:18.007Z,99.99
2018-01-07T05:10:17.725Z,99.99
2018-01-07T05:11:17.965Z,99.99
2018-01-07T05:12:17.722Z,99.99
2018-01-07T05:13:17.966Z,99.99
2018-01-07T05:14:17.907Z,99.99
2018-01-07T05:15:17.898Z,99.99
2018-01-07T05:16:17.860Z,99.99
2018-01-07T05:17:17.840Z,99.99
2018-01-07T05:18:17.536Z,99.99
2018-01-07T05:19:17.515Z,99.99
2018-01-07T05:20:17.757Z,99.99
2018-01-07T05:21:17.733Z,99.99
2018-01-07T05:22:17.713Z,99.99
2018-01-07T05:23:17.428Z,99.99
2018-01-07T05:24:17.667Z,99.99
2018-01-07T05:25:17.647Z,99.99
2018-01-07T05:26:17.633Z,99.99
2018-01-07T05:27:17.344Z,99.99
2018-01-07T05:28:17.587Z,99.99
2018-01-07T05:29:17.558Z,99.99
2018-01-07T05:30:17.537Z,99.99
2018-01-07T05:31:17.517Z,99.99
2018-01-07T05:32:17.495Z,99.99
2018-01-07T05:33:17.473Z,99.99
2018-01-07T05:34:17.454Z,99.99
2018-01-07T05:35:17.428Z,99.99
2018-01-07T05:36:17.424Z,99.99
2018-01-07T05:37:17.382Z,99.99
2018-01-07T05:38:17.359Z,99.99
2018-01-07T05:39:17.360Z,99.99
2018-01-07T05:40:17.318Z,99.99
2018-01-07T05:41:17.294Z,99.99
2018-01-07T05:42:17.272Z,99.99
2018-01-07T05:43:16.986Z,99.99
2018-01-07T05:44:16.963Z,99.99
2018-01-07T05:45:16.944Z,99.99
2018-01-07T05:46:17.185Z,99.99
2018-01-07T05:47:17.162Z,99.99
2018-01-07T05:48:17.138Z,99.99
2018-01-07T05:49:17.114Z,99.99
2018-01-07T05:50:17.097Z,99.99
2018-01-07T05:51:17.080Z,99.99
2018-01-07T05:52:16.793Z,99.99
2018-01-07T05:53:17.028Z,99.99
2018-01-07T05:54:17.005Z,99.99
2018-01-07T05:55:16.721Z,99.99
2018-01-07T05:56:16.963Z,99.99
2018-01-07T05:57:16.682Z,99.99
2018-01-07T05:58:16.652Z,99.99
2018-01-07T05:59:16.901Z,99.99
2018-01-07T06:00:16.872Z,99.99
2018-01-07T06:01:16.849Z,99.99
2018-01-07T06:02:16.568Z,99.99
2018-01-07T06:03:16.810Z,99.99
2018-01-07T06:04:16.786Z,99.99
2018-01-07T06:05:16.762Z,99.99
2018-01-07T06:06:16.476Z,99.99
2018-01-07T06:07:16.453Z,99.99
2018-01-07T06:08:16.699Z,99.99
2018-01-07T06:09:16.410Z,99.99
2018-01-07T06:10:16.650Z,99.99
2018-01-07T06:11:16.632Z,99.99
2018-01-07T06:12:16.615Z,99.99
2018-01-07T06:13:16.584Z,99.99
2018-01-07T06:14:16.562Z,99.99
2018-01-07T06:15:16.544Z,99.99
2018-01-07T06:16:16.253Z,99.99
2018-01-07T06:17:16.233Z,99.99
2018-01-07T06:18:16.476Z,99.99
2018-01-07T06:19:16.187Z,99.99
2018-01-07T06:20:16.431Z,99.99
2018-01-07T06:21:16.411Z,99.99
2018-01-07T06:22:16.388Z,99.99
2018-01-07T06:23:16.099Z,99.99
2018-01-07T06:24:16.349Z,99.99
2018-01-07T06:25:16.329Z,99.99
2018-01-07T06:26:16.033Z,99.99
2018-01-07T06:27:16.043Z,99.99
2018-01-07T06:28:15.988Z,99.99
2018-01-07T06:29:16.233Z,99.99
2018-01-07T06:30:16.417Z,99.99
2018-01-07T06:31:15.922Z,99.99
2018-01-07T06:32:15.901Z,99.99
2018-01-07T06:33:16.141Z,99.99
2018-01-07T06:34:16.117Z,99.99
2018-01-07T06:35:16.094Z,99.99
2018-01-07T06:36:15.821Z,99.99
2018-01-07T06:37:16.046Z,99.99
2018-01-07T06:38:16.043Z,99.99
2018-01-07T06:39:15.740Z,99.99
2018-01-07T06:40:16.010Z,99.99
2018-01-07T06:41:15.960Z,99.99
2018-01-07T06:42:15.939Z,99.99
2018-01-07T06:43:15.652Z,99.99
2018-01-07T06:44:15.912Z,99.99
2018-01-07T06:45:15.876Z,99.99
2018-01-07T06:46:15.869Z,99.99
2018-01-07T06:47:15.826Z,99.99
2018-01-07T06:48:15.538Z,99.99
2018-01-07T06:49:15.778Z,99.99
2018-01-07T06:50:15.763Z,99.99
2018-01-07T06:51:15.735Z,99.99
2018-01-07T06:52:15.715Z,99.99
2018-01-07T06:53:15.688Z,99.99
2018-01-07T06:54:15.668Z,99.99
2018-01-07T06:55:15.644Z,99.99
2018-01-07T06:56:15.636Z,99.99
2018-01-07T06:57:15.602Z,99.99
2018-01-07T06:58:15.620Z,99.99
2018-01-07T06:59:15.555Z,99.99
2018-01-07T07:00:15.269Z,99.99
2018-01-07T07:01:15.519Z,99.99
2018-01-07T07:02:15.224Z,99.99
2018-01-07T07:03:15.202Z,99.99
2018-01-07T07:04:15.445Z,99.99
2018-01-07T07:05:15.430Z,99.99
2018-01-07T07:06:15.399Z,99.99
2018-01-07T07:07:15.115Z,99.99
2018-01-07T07:08:15.089Z,99.99
2018-01-07T07:09:15.065Z,99.99
2018-01-07T07:10:15.042Z,99.99
2018-01-07T07:11:15.021Z,99.99
2018-01-07T07:12:14.998Z,99.99
2018-01-07T07:13:14.980Z,99.99
2018-01-07T07:14:15.215Z,99.99
2018-01-07T07:15:15.191Z,99.99
2018-01-07T07:16:14.909Z,99.99
2018-01-07T07:17:15.147Z,99.99
2018-01-07T07:18:15.124Z,99.99
2018-01-07T07:19:14.835Z,99.99
2018-01-07T07:20:15.081Z,99.99
2018-01-07T07:21:14.790Z,99.99
2018-01-07T07:22:14.769Z,99.99
2018-01-07T07:23:15.010Z,99.99
2018-01-07T07:24:14.724Z,99.99
2018-01-07T07:25:14.964Z,99.99
2018-01-07T07:26:14.939Z,99.99
2018-01-07T07:27:14.656Z,99.99
2018-01-07T07:28:14.894Z,99.99
2018-01-07T07:29:14.869Z,99.99
2018-01-07T07:30:14.584Z,99.99
2018-01-07T07:31:14.565Z,99.99
2018-01-07T07:32:14.537Z,99.99
2018-01-07T07:33:14.787Z,99.99
2018-01-07T07:34:14.756Z,99.99
2018-01-07T07:35:14.468Z,99.99
2018-01-07T07:36:14.449Z,99.99
2018-01-07T07:37:14.693Z,99.99
2018-01-07T07:38:14.400Z,99.99
2018-01-07T07:39:14.376Z,99.99
2018-01-07T07:40:14.360Z,99.99
2018-01-07T07:41:14.331Z,99.99
2018-01-07T07:42:14.315Z,99.99
2018-01-07T07:43:14.287Z,99.99
2018-01-07T07:44:14.529Z,99.99
2018-01-07T07:45:14.504Z,99.99
2018-01-07T07:46:14.267Z,99.99
2018-01-07T07:47:14.468Z,99.99
2018-01-07T07:48:14.441Z,99.99
2018-01-07T07:49:14.148Z,99.99
2018-01-07T07:50:14.123Z,99.99
2018-01-07T07:51:14.364Z,99.99
2018-01-07T07:52:14.077Z,99.99
2018-01-07T07:53:14.320Z,99.99
2018-01-07T07:54:14.033Z,99.99
2018-01-07T07:55:14.272Z,99.99
2018-01-07T07:56:13.986Z,99.99
2018-01-07T07:57:14.228Z,99.99
2018-01-07T07:58:13.937Z,99.99
2018-01-07T07:59:14.179Z,99.99
2018-01-07T08:00:14.158Z,99.99
2018-01-07T08:01:14.132Z,99.99
2018-01-07T08:02:14.112Z,99.99
2018-01-07T08:03:14.089Z,99.99
2018-01-07T08:04:14.062Z,99.99
2018-01-07T08:05:13.782Z,99.99
2018-01-07T08:06:13.750Z,99.99
2018-01-07T08:07:14.003Z,99.99
2018-01-07T08:08:13.726Z,99.99
2018-01-07T08:09:13.964Z,99.99
2018-01-07T08:10:13.928Z,99.99
2018-01-07T08:11:13.903Z,99.99
2018-01-07T08:12:13.877Z,99.99
2018-01-07T08:13:13.852Z,99.99
2018-01-07T08:14:13.837Z,99.99
2018-01-07T08:15:13.543Z,99.99
2018-01-07T08:16:13.785Z,99.99
2018-01-07T08:17:13.761Z,99.99
2018-01-07T08:18:13.474Z,99.99
2018-01-07T08:19:13.460Z,99.99
2018-01-07T08:20:13.750Z,99.99
2018-01-07T08:21:13.421Z,99.99
2018-01-07T08:22:13.389Z,99.99
2018-01-07T08:23:13.356Z,99.99
2018-01-07T08:24:13.626Z,99.99
2018-01-07T08:25:13.578Z,99.99
2018-01-07T08:26:13.562Z,99.99
2018-01-07T08:27:13.266Z,99.99
2018-01-07T08:28:13.246Z,99.99
2018-01-07T08:29:13.496Z,99.99
2018-01-07T08:30:13.909Z,99.99
2018-01-07T08:31:13.439Z,99.99
2018-01-07T08:32:13.412Z,99.99
2018-01-07T08:33:13.128Z,99.99
2018-01-07T08:34:13.108Z,99.99
2018-01-07T08:35:13.345Z,99.99
2018-01-07T08:36:13.331Z,99.99
2018-01-07T08:37:13.043Z,99.99
2018-01-07T08:38:13.017Z,99.99
2018-01-07T08:39:13.253Z,99.99
2018-01-07T08:40:13.235Z,99.99
2018-01-07T08:41:12.946Z,99.99
2018-01-07T08:42:12.920Z,99.99
2018-01-07T08:43:12.904Z,99.99
2018-01-07T08:44:12.875Z,99.99
2018-01-07T08:45:12.857Z,99.99
2018-01-07T08:46:13.099Z,99.99
2018-01-07T08:47:12.811Z,99.99
2018-01-07T08:48:13.050Z,99.99
2018-01-07T08:49:13.024Z,99.99
2018-01-07T08:50:13.006Z,99.99
2018-01-07T08:51:12.714Z,99.99
2018-01-07T08:52:12.690Z,99.99
2018-01-07T08:53:12.668Z,99.99
2018-01-07T08:54:12.643Z,99.99
2018-01-07T08:55:12.888Z,99.99
2018-01-07T08:56:12.861Z,99.99
2018-01-07T08:57:12.863Z,99.99
2018-01-07T08:58:12.820Z,99.99
2018-01-07T08:59:12.544Z,99.99
2018-01-07T09:00:12.782Z,99.99
2018-01-07T09:01:12.745Z,99.99
2018-01-07T09:02:12.730Z,99.99
2018-01-07T09:03:12.701Z,99.99
2018-01-07T09:04:12.678Z,99.99
2018-01-07T09:05:12.654Z,99.99
2018-01-07T09:06:12.374Z,99.99
2018-01-07T09:07:12.617Z,99.99
2018-01-07T09:08:12.585Z,99.99
2018-01-07T09:09:12.563Z,99.99
2018-01-07T09:10:12.284Z,99.99
2018-01-07T09:11:12.517Z,99.99
2018-01-07T09:12:12.238Z,99.99
2018-01-07T09:13:12.202Z,99.99
2018-01-07T09:14:12.446Z,99.99
2018-01-07T09:15:12.167Z,99.99
2018-01-07T09:16:12.417Z,99.99
2018-01-07T09:17:12.387Z,99.99
2018-01-07T09:18:12.114Z,99.99
2018-01-07T09:19:12.354Z,99.99
2018-01-07T09:20:12.324Z,99.99
2018-01-07T09:21:12.302Z,99.99
2018-01-07T09:22:12.268Z,99.99
2018-01-07T09:23:11.980Z,99.99
2018-01-07T09:24:11.953Z,99.99
2018-01-07T09:25:12.217Z,99.99
2018-01-07T09:26:11.909Z,99.99
2018-01-07T09:27:12.175Z,99.99
2018-01-07T09:28:11.877Z,99.99
2018-01-07T09:29:12.101Z,99.99
2018-01-07T09:30:12.082Z,99.99
2018-01-07T09:31:12.059Z,99.99
2018-01-07T09:32:11.768Z,99.99
2018-01-07T09:33:12.012Z,99.99
2018-01-07T09:34:11.725Z,99.99
2018-01-07T09:35:11.966Z,99.99
2018-01-07T09:36:11.682Z,99.99
2018-01-07T09:37:11.657Z,99.99
2018-01-07T09:38:11.635Z,99.99
2018-01-07T09:39:11.877Z,99.99
2018-01-07T09:40:11.628Z,99.99
2018-01-07T09:41:11.569Z,99.99
2018-01-07T09:42:11.808Z,99.99
2018-01-07T09:43:11.786Z,99.99
2018-01-07T09:44:11.764Z,99.99
2018-01-07T09:45:11.473Z,99.99
2018-01-07T09:46:11.456Z,99.99
2018-01-07T09:47:11.701Z,99.99
2018-01-07T09:48:11.410Z,99.99
2018-01-07T09:49:11.664Z,99.99
2018-01-07T09:50:11.371Z,99.99
2018-01-07T09:51:11.613Z,99.99
2018-01-07T09:52:11.599Z,99.99
2018-01-07T09:53:11.576Z,99.99
2018-01-07T09:54:11.291Z,99.99
2018-01-07T09:55:11.519Z,99.99
2018-01-07T09:56:11.498Z,99.99
2018-01-07T09:57:11.489Z,99.99
2018-01-07T09:58:11.468Z,99.99
2018-01-07T09:59:11.169Z,99.99
2018-01-07T10:00:11.419Z,99.99
2018-01-07T10:01:11.455Z,99.99
2018-01-07T10:02:11.370Z,99.99
2018-01-07T10:03:11.351Z,99.99
2018-01-07T10:04:11.378Z,99.99
2018-01-07T10:05:11.304Z,99.99
2018-01-07T10:06:11.284Z,99.99
2018-01-07T10:07:11.059Z,99.99
2018-01-07T10:08:11.254Z,99.99
2018-01-07T10:09:11.221Z,99.99
2018-01-07T10:10:10.937Z,99.99
2018-01-07T10:11:11.189Z,99.99
2018-01-07T10:12:11.168Z,99.99
2018-01-07T10:13:11.144Z,99.99
2018-01-07T10:14:11.177Z,99.99
2018-01-07T10:15:11.099Z,99.99
2018-01-07T10:16:11.074Z,99.99
2018-01-07T10:17:11.055Z,99.99
2018-01-07T10:18:11.077Z,99.99
2018-01-07T10:19:11.075Z,99.99
2018-01-07T10:20:10.998Z,99.99
2018-01-07T10:21:10.729Z,99.99
2018-01-07T10:22:11.009Z,99.99
2018-01-07T10:23:10.659Z,99.99
2018-01-07T10:24:10.638Z,99.99
2018-01-07T10:25:10.882Z,99.99
2018-01-07T10:26:10.858Z,99.99
2018-01-07T10:27:10.836Z,99.99
2018-01-07T10:28:10.813Z,99.99
2018-01-07T10:29:10.793Z,99.99
2018-01-07T10:30:10.779Z,99.99
2018-01-07T10:31:10.480Z,99.99
2018-01-07T10:32:10.469Z,99.99
2018-01-07T10:33:10.447Z,99.99
2018-01-07T10:34:10.694Z,99.99
2018-01-07T10:35:10.659Z,99.99
2018-01-07T10:36:10.640Z,99.99
2018-01-07T10:37:10.623Z,99.99
2018-01-07T10:38:10.597Z,99.99
2018-01-07T10:39:10.616Z,99.99
2018-01-07T10:40:10.564Z,99.99
2018-01-07T10:41:10.268Z,99.99
2018-01-07T10:42:10.241Z,99.99
2018-01-07T10:43:10.228Z,99.99
2018-01-07T10:44:10.480Z,99.99
2018-01-07T10:45:10.180Z,99.99
2018-01-07T10:46:10.157Z,99.99
2018-01-07T10:47:10.147Z,99.99
2018-01-07T10:48:10.379Z,99.99
2018-01-07T10:49:10.374Z,99.99
2018-01-07T10:50:10.345Z,99.99
2018-01-07T10:51:10.310Z,99.99
2018-01-07T10:52:10.294Z,99.99
2018-01-07T10:53:10.278Z,99.99
2018-01-07T10:54:09.983Z,99.99
2018-01-07T10:55:42.085Z,99.99
2018-01-07T10:56:10.201Z,99.99
2018-01-07T10:57:10.184Z,99.99
2018-01-07T10:58:09.901Z,99.99
2018-01-07T10:59:10.138Z,99.99
2018-01-07T11:00:09.866Z,99.99
2018-01-07T11:01:09.835Z,99.99
2018-01-07T11:02:10.085Z,99.99
2018-01-07T11:03:10.054Z,99.99
2018-01-07T11:04:10.033Z,99.99
2018-01-07T11:05:10.016Z,99.99
2018-01-07T11:06:09.996Z,99.99
2018-01-07T11:07:09.975Z,99.99
2018-01-07T11:08:09.941Z,99.99
2018-01-07T11:09:09.658Z,99.99
2018-01-07T11:10:09.636Z,99.99
2018-01-07T11:11:09.618Z,99.99
2018-01-07T11:12:09.855Z,99.99
2018-01-07T11:13:09.574Z,99.99
2018-01-07T11:14:09.813Z,99.99
2018-01-07T11:15:09.793Z,99.99
2018-01-07T11:16:09.783Z,99.99
2018-01-07T11:17:09.751Z,99.99
2018-01-07T11:18:09.466Z,99.99
2018-01-07T11:19:09.716Z,99.99
2018-01-07T11:20:09.687Z,99.99
2018-01-07T11:21:09.465Z,99.99
2018-01-07T11:22:09.380Z,99.99
2018-01-07T11:23:09.630Z,99.99
2018-01-07T11:24:09.612Z,99.99
2018-01-07T11:25:09.578Z,99.99
2018-01-07T11:26:09.559Z,99.99
2018-01-07T11:27:09.273Z,99.99
2018-01-07T11:28:09.516Z,99.99
2018-01-07T11:29:09.497Z,99.99
2018-01-07T11:30:09.474Z,99.99
2018-01-07T11:31:09.454Z,99.99
2018-01-07T11:32:09.461Z,99.99
2018-01-07T11:33:09.148Z,99.99
2018-01-07T11:34:09.390Z,99.99
2018-01-07T11:35:09.376Z,99.99
2018-01-07T11:36:09.082Z,99.99
2018-01-07T11:37:09.335Z,99.99
2018-01-07T11:38:09.311Z,99.99
2018-01-07T11:39:09.025Z,99.99
2018-01-07T11:40:08.999Z,99.99
2018-01-07T11:41:08.980Z,99.99
2018-01-07T11:42:08.965Z,99.99
2018-01-07T11:43:08.940Z,99.99
2018-01-07T11:44:09.217Z,99.99
2018-01-07T11:45:09.167Z,99.99
2018-01-07T11:46:09.140Z,99.99
2018-01-07T11:47:08.905Z,99.99
2018-01-07T11:48:09.104Z,99.99
2018-01-07T11:49:09.082Z,99.99
2018-01-07T11:50:09.068Z,99.99
2018-01-07T11:51:09.043Z,99.99
2018-01-07T11:52:09.016Z,99.99
2018-01-07T11:53:08.996Z,99.99
2018-01-07T11:54:08.709Z,99.99
2018-01-07T11:55:08.694Z,99.99
2018-01-07T11:56:08.948Z,99.99
2018-01-07T11:57:08.653Z,99.99
2018-01-07T11:58:08.628Z,99.99
2018-01-07T11:59:08.876Z,99.99
2018-01-07T12:00:08.639Z,99.99
2018-01-07T12:01:08.572Z,99.99
2018-01-07T12:02:08.806Z,99.99
2018-01-07T12:03:08.796Z,99.99
2018-01-07T12:04:08.500Z,99.99
2018-01-07T12:05:08.483Z,99.99
2018-01-07T12:06:08.733Z,99.99
2018-01-07T12:07:08.702Z,99.99
2018-01-07T12:08:08.680Z,99.99
2018-01-07T12:09:08.665Z,99.99
2018-01-07T12:10:08.651Z,99.99
2018-01-07T12:11:08.620Z,99.99
2018-01-07T12:12:08.601Z,99.99
2018-01-07T12:13:08.316Z,99.99
2018-01-07T12:14:08.603Z,99.99
2018-01-07T12:15:08.539Z,99.99
2018-01-07T12:16:08.253Z,99.99
2018-01-07T12:17:08.492Z,99.99
2018-01-07T12:18:08.207Z,99.99
2018-01-07T12:19:08.452Z,99.99
2018-01-07T12:20:08.168Z,99.99
2018-01-07T12:21:08.459Z,99.99
2018-01-07T12:22:08.389Z,99.99
2018-01-07T12:23:08.115Z,99.99
2018-01-07T12:24:08.349Z,99.99
2018-01-07T12:25:08.066Z,99.99
2018-01-07T12:26:08.045Z,99.99
2018-01-07T12:27:08.287Z,99.99
2018-01-07T12:28:08.274Z,99.99
2018-01-07T12:29:07.987Z,99.99
2018-01-07T12:30:08.233Z,99.99
2018-01-07T12:31:08.426Z,99.99
2018-01-07T12:32:07.924Z,99.99
2018-01-07T12:33:08.221Z,99.99
2018-01-07T12:34:08.195Z,99.99
2018-01-07T12:35:08.146Z,99.99
2018-01-07T12:36:07.853Z,99.99
2018-01-07T12:37:08.092Z,99.99
2018-01-07T12:38:07.804Z,99.99
2018-01-07T12:39:07.787Z,99.99
2018-01-07T12:40:07.765Z,99.99
2018-01-07T12:41:07.754Z,99.99
2018-01-07T12:42:07.992Z,99.99
2018-01-07T12:43:07.979Z,99.99
2018-01-07T12:44:07.687Z,99.99
2018-01-07T12:45:07.937Z,99.99
2018-01-07T12:46:07.910Z,99.99
2018-01-07T12:47:07.631Z,99.99
2018-01-07T12:48:07.616Z,99.99
2018-01-07T12:49:07.608Z,99.99
2018-01-07T12:50:07.844Z,99.99
2018-01-07T12:51:07.558Z,99.99
2018-01-07T12:52:07.541Z,99.99
2018-01-07T12:53:07.520Z,99.99